sensor_id;sensor_type;location;lat;lon;timestamp;temperature;humidity
28484;DHT22;15704;48.834;8.736;2023-04-24T00:02:20;9.90;99.90
28484;DHT22;15704;48.834;8.736;2023-04-24T00:04:47;9.90;99.90
28484;DHT22;15704;48.834;8.736;2023-04-24T00:07:15;9.80;99.90
28484;DHT22;15704;48.834;8.736;2023-04-24T00:09:43;9.80;99.90
28484;DHT22;15704;48.834;8.736;2023-04-24T00:12:10;9.80;99.90
28484;DHT22;15704;48.834;8.736;2023-04-24T00:14:38;9.80;99.90
28484;DHT22;15704;48.834;8.736;2023-04-24T00:17:05;9.80;99.90
28484;DHT22;15704;48.834;8.736;2023-04-24T00:19:32;9.70;99.90
28484;DHT22;15704;48.834;8.736;2023-04-24T00:21:58;9.70;99.90
28484;DHT22;15704;48.834;8.736;2023-04-24T00:24:25;9.70;99.90
28484;DHT22;15704;48.834;8.736;2023-04-24T00:26:52;9.70;99.90
28484;DHT22;15704;48.834;8.736;2023-04-24T00:29:19;9.70;99.90
28484;DHT22;15704;48.834;8.736;2023-04-24T00:31:46;9.70;99.90
28484;DHT22;15704;48.834;8.736;2023-04-24T00:34:12;9.70;99.90
28484;DHT22;15704;48.834;8.736;2023-04-24T00:36:40;9.70;99.90
28484;DHT22;15704;48.834;8.736;2023-04-24T00:39:07;9.70;99.90
28484;DHT22;15704;48.834;8.736;2023-04-24T00:41:37;9.70;99.90
28484;DHT22;15704;48.834;8.736;2023-04-24T00:44:03;9.70;99.90
28484;DHT22;15704;48.834;8.736;2023-04-24T00:46:31;9.70;99.90
28484;DHT22;15704;48.834;8.736;2023-04-24T00:48:59;9.80;99.90
28484;DHT22;15704;48.834;8.736;2023-04-24T00:51:25;9.80;99.90
28484;DHT22;15704;48.834;8.736;2023-04-24T00:53:54;9.80;99.90
28484;DHT22;15704;48.834;8.736;2023-04-24T00:56:21;9.80;99.90
28484;DHT22;15704;48.834;8.736;2023-04-24T00:58:48;9.80;99.90
28484;DHT22;15704;48.834;8.736;2023-04-24T01:01:15;9.80;99.90
28484;DHT22;15704;48.834;8.736;2023-04-24T01:03:42;9.80;99.90
28484;DHT22;15704;48.834;8.736;2023-04-24T01:06:10;9.80;99.90
28484;DHT22;15704;48.834;8.736;2023-04-24T01:11:36;9.80;99.90
28484;DHT22;15704;48.834;8.736;2023-04-24T01:14:04;9.70;99.90
28484;DHT22;15704;48.834;8.736;2023-04-24T01:16:30;9.70;99.90
28484;DHT22;15704;48.834;8.736;2023-04-24T01:18:57;9.70;99.90
28484;DHT22;15704;48.834;8.736;2023-04-24T01:21:26;9.70;99.90
28484;DHT22;15704;48.834;8.736;2023-04-24T01:23:56;9.60;99.90
28484;DHT22;15704;48.834;8.736;2023-04-24T01:26:23;9.60;99.90
28484;DHT22;15704;48.834;8.736;2023-04-24T01:28:52;9.50;99.90
28484;DHT22;15704;48.834;8.736;2023-04-24T01:31:19;9.40;99.90
28484;DHT22;15704;48.834;8.736;2023-04-24T01:33:47;9.40;99.90
28484;DHT22;15704;48.834;8.736;2023-04-24T01:36:14;9.50;99.90
28484;DHT22;15704;48.834;8.736;2023-04-24T01:38:42;9.50;99.90
28484;DHT22;15704;48.834;8.736;2023-04-24T01:41:10;9.50;99.90
28484;DHT22;15704;48.834;8.736;2023-04-24T01:43:37;9.50;99.90
28484;DHT22;15704;48.834;8.736;2023-04-24T01:46:04;9.50;99.90
28484;DHT22;15704;48.834;8.736;2023-04-24T01:48:31;9.50;99.90
28484;DHT22;15704;48.834;8.736;2023-04-24T01:50:59;9.60;99.90
28484;DHT22;15704;48.834;8.736;2023-04-24T01:53:26;9.60;99.90
28484;DHT22;15704;48.834;8.736;2023-04-24T01:55:52;9.60;99.90
28484;DHT22;15704;48.834;8.736;2023-04-24T01:58:22;9.60;99.90
28484;DHT22;15704;48.834;8.736;2023-04-24T02:00:56;9.70;99.90
28484;DHT22;15704;48.834;8.736;2023-04-24T02:03:23;9.70;99.90
28484;DHT22;15704;48.834;8.736;2023-04-24T02:05:50;9.70;99.90
28484;DHT22;15704;48.834;8.736;2023-04-24T02:08:17;9.70;99.90
28484;DHT22;15704;48.834;8.736;2023-04-24T02:10:46;9.70;99.90
28484;DHT22;15704;48.834;8.736;2023-04-24T02:13:16;9.70;99.90
28484;DHT22;15704;48.834;8.736;2023-04-24T02:15:43;9.60;99.90
28484;DHT22;15704;48.834;8.736;2023-04-24T02:18:09;9.60;99.90
28484;DHT22;15704;48.834;8.736;2023-04-24T02:20:37;9.60;99.90
28484;DHT22;15704;48.834;8.736;2023-04-24T02:23:04;9.60;99.90
28484;DHT22;15704;48.834;8.736;2023-04-24T02:25:31;9.60;99.90
28484;DHT22;15704;48.834;8.736;2023-04-24T02:27:58;9.60;99.90
28484;DHT22;15704;48.834;8.736;2023-04-24T02:30:25;9.50;99.90
28484;DHT22;15704;48.834;8.736;2023-04-24T02:32:51;9.40;99.90
28484;DHT22;15704;48.834;8.736;2023-04-24T02:35:18;9.30;99.90
28484;DHT22;15704;48.834;8.736;2023-04-24T02:37:54;9.20;99.90
28484;DHT22;15704;48.834;8.736;2023-04-24T02:40:23;9.00;99.90
28484;DHT22;15704;48.834;8.736;2023-04-24T02:42:50;8.90;99.90
28484;DHT22;15704;48.834;8.736;2023-04-24T02:45:17;8.80;99.90
28484;DHT22;15704;48.834;8.736;2023-04-24T02:47:44;8.70;99.90
28484;DHT22;15704;48.834;8.736;2023-04-24T02:50:13;8.60;99.90
28484;DHT22;15704;48.834;8.736;2023-04-24T02:52:44;8.50;99.90
28484;DHT22;15704;48.834;8.736;2023-04-24T02:55:11;8.50;99.90
28484;DHT22;15704;48.834;8.736;2023-04-24T02:57:37;8.50;99.90
28484;DHT22;15704;48.834;8.736;2023-04-24T03:00:05;8.60;99.90
28484;DHT22;15704;48.834;8.736;2023-04-24T03:02:33;8.60;99.90
28484;DHT22;15704;48.834;8.736;2023-04-24T03:05:01;8.70;99.90
28484;DHT22;15704;48.834;8.736;2023-04-24T03:07:28;8.80;99.90
28484;DHT22;15704;48.834;8.736;2023-04-24T03:09:55;8.80;99.90
28484;DHT22;15704;48.834;8.736;2023-04-24T03:12:24;8.80;99.90
28484;DHT22;15704;48.834;8.736;2023-04-24T03:14:51;8.80;99.90
28484;DHT22;15704;48.834;8.736;2023-04-24T03:17:17;8.80;99.90
28484;DHT22;15704;48.834;8.736;2023-04-24T03:19:50;8.80;99.90
28484;DHT22;15704;48.834;8.736;2023-04-24T03:22:17;8.80;99.90
28484;DHT22;15704;48.834;8.736;2023-04-24T03:24:43;8.90;99.90
28484;DHT22;15704;48.834;8.736;2023-04-24T03:27:10;8.90;99.90
28484;DHT22;15704;48.834;8.736;2023-04-24T03:29:37;8.90;99.90
28484;DHT22;15704;48.834;8.736;2023-04-24T03:32:04;8.90;99.90
28484;DHT22;15704;48.834;8.736;2023-04-24T03:34:30;9.00;99.90
28484;DHT22;15704;48.834;8.736;2023-04-24T03:36:59;9.00;99.90
28484;DHT22;15704;48.834;8.736;2023-04-24T03:39:25;9.10;99.90
28484;DHT22;15704;48.834;8.736;2023-04-24T03:41:52;9.10;99.90
28484;DHT22;15704;48.834;8.736;2023-04-24T03:44:19;9.10;99.90
28484;DHT22;15704;48.834;8.736;2023-04-24T03:46:45;9.10;99.90
28484;DHT22;15704;48.834;8.736;2023-04-24T03:49:12;9.10;99.90
28484;DHT22;15704;48.834;8.736;2023-04-24T03:52:02;8.90;99.90
28484;DHT22;15704;48.834;8.736;2023-04-24T03:54:29;8.70;99.90
28484;DHT22;15704;48.834;8.736;2023-04-24T03:56:55;8.50;99.90
28484;DHT22;15704;48.834;8.736;2023-04-24T03:59:22;8.30;99.90
28484;DHT22;15704;48.834;8.736;2023-04-24T04:01:49;8.20;99.90
28484;DHT22;15704;48.834;8.736;2023-04-24T04:04:16;8.20;99.90
28484;DHT22;15704;48.834;8.736;2023-04-24T04:06:43;8.00;99.90
28484;DHT22;15704;48.834;8.736;2023-04-24T04:09:10;8.00;99.90
28484;DHT22;15704;48.834;8.736;2023-04-24T04:11:37;8.00;99.90
28484;DHT22;15704;48.834;8.736;2023-04-24T04:14:04;7.90;99.90
28484;DHT22;15704;48.834;8.736;2023-04-24T04:16:31;7.80;99.90
28484;DHT22;15704;48.834;8.736;2023-04-24T04:18:58;7.80;99.90
28484;DHT22;15704;48.834;8.736;2023-04-24T04:21:25;7.80;99.90
28484;DHT22;15704;48.834;8.736;2023-04-24T04:23:53;7.80;99.90
28484;DHT22;15704;48.834;8.736;2023-04-24T04:26:20;7.80;99.90
28484;DHT22;15704;48.834;8.736;2023-04-24T04:28:49;7.70;99.90
28484;DHT22;15704;48.834;8.736;2023-04-24T04:31:16;7.80;99.90
28484;DHT22;15704;48.834;8.736;2023-04-24T04:33:43;7.70;99.90
28484;DHT22;15704;48.834;8.736;2023-04-24T04:36:10;7.70;99.90
28484;DHT22;15704;48.834;8.736;2023-04-24T04:38:36;7.70;99.90
28484;DHT22;15704;48.834;8.736;2023-04-24T04:41:03;7.60;99.90
28484;DHT22;15704;48.834;8.736;2023-04-24T04:43:30;7.50;99.90
28484;DHT22;15704;48.834;8.736;2023-04-24T04:45:57;7.40;99.90
28484;DHT22;15704;48.834;8.736;2023-04-24T04:48:24;7.40;99.90
28484;DHT22;15704;48.834;8.736;2023-04-24T04:50:51;7.40;99.90
28484;DHT22;15704;48.834;8.736;2023-04-24T04:53:17;7.40;99.90
28484;DHT22;15704;48.834;8.736;2023-04-24T04:55:44;7.40;99.90
28484;DHT22;15704;48.834;8.736;2023-04-24T04:58:24;7.50;99.90
28484;DHT22;15704;48.834;8.736;2023-04-24T05:00:51;7.60;99.90
28484;DHT22;15704;48.834;8.736;2023-04-24T05:03:18;7.60;99.90
28484;DHT22;15704;48.834;8.736;2023-04-24T05:05:47;7.70;99.90
28484;DHT22;15704;48.834;8.736;2023-04-24T05:08:14;7.70;99.90
28484;DHT22;15704;48.834;8.736;2023-04-24T05:10:43;7.80;99.90
28484;DHT22;15704;48.834;8.736;2023-04-24T05:13:10;7.80;99.90
28484;DHT22;15704;48.834;8.736;2023-04-24T05:15:45;7.80;99.90
28484;DHT22;15704;48.834;8.736;2023-04-24T05:18:12;7.90;99.90
28484;DHT22;15704;48.834;8.736;2023-04-24T05:20:39;8.10;99.90
28484;DHT22;15704;48.834;8.736;2023-04-24T05:23:05;8.10;99.90
28484;DHT22;15704;48.834;8.736;2023-04-24T05:25:32;8.10;99.90
28484;DHT22;15704;48.834;8.736;2023-04-24T05:28:01;8.10;99.90
28484;DHT22;15704;48.834;8.736;2023-04-24T05:30:29;8.10;99.90
28484;DHT22;15704;48.834;8.736;2023-04-24T05:32:55;8.30;99.90
28484;DHT22;15704;48.834;8.736;2023-04-24T05:35:22;8.50;99.90
28484;DHT22;15704;48.834;8.736;2023-04-24T05:37:49;8.40;99.90
28484;DHT22;15704;48.834;8.736;2023-04-24T05:40:16;8.30;99.90
28484;DHT22;15704;48.834;8.736;2023-04-24T05:42:43;8.30;99.90
28484;DHT22;15704;48.834;8.736;2023-04-24T05:45:10;8.30;99.90
28484;DHT22;15704;48.834;8.736;2023-04-24T05:47:41;8.30;99.90
28484;DHT22;15704;48.834;8.736;2023-04-24T05:50:08;8.40;99.90
28484;DHT22;15704;48.834;8.736;2023-04-24T05:52:35;8.60;99.90
28484;DHT22;15704;48.834;8.736;2023-04-24T05:55:02;8.80;99.90
28484;DHT22;15704;48.834;8.736;2023-04-24T05:57:28;9.00;99.90
28484;DHT22;15704;48.834;8.736;2023-04-24T05:59:56;9.10;99.90
28484;DHT22;15704;48.834;8.736;2023-04-24T06:02:23;9.20;99.90
28484;DHT22;15704;48.834;8.736;2023-04-24T06:04:50;9.50;99.90
28484;DHT22;15704;48.834;8.736;2023-04-24T06:07:17;9.70;99.90
28484;DHT22;15704;48.834;8.736;2023-04-24T06:09:44;9.90;99.90
28484;DHT22;15704;48.834;8.736;2023-04-24T06:12:11;9.90;99.90
28484;DHT22;15704;48.834;8.736;2023-04-24T06:14:38;10.20;99.90
28484;DHT22;15704;48.834;8.736;2023-04-24T06:17:05;10.00;99.90
28484;DHT22;15704;48.834;8.736;2023-04-24T06:19:32;9.90;99.90
28484;DHT22;15704;48.834;8.736;2023-04-24T06:21:59;10.00;99.90
28484;DHT22;15704;48.834;8.736;2023-04-24T06:24:29;10.30;99.90
28484;DHT22;15704;48.834;8.736;2023-04-24T06:26:55;10.40;99.90
28484;DHT22;15704;48.834;8.736;2023-04-24T06:29:24;10.30;99.90
28484;DHT22;15704;48.834;8.736;2023-04-24T06:31:51;10.40;99.90
28484;DHT22;15704;48.834;8.736;2023-04-24T06:34:18;10.30;99.90
28484;DHT22;15704;48.834;8.736;2023-04-24T06:36:46;10.00;99.90
28484;DHT22;15704;48.834;8.736;2023-04-24T06:39:13;10.10;99.90
28484;DHT22;15704;48.834;8.736;2023-04-24T06:41:39;9.90;99.90
28484;DHT22;15704;48.834;8.736;2023-04-24T06:44:07;9.90;99.90
28484;DHT22;15704;48.834;8.736;2023-04-24T06:46:33;9.90;99.90
28484;DHT22;15704;48.834;8.736;2023-04-24T06:49:01;10.00;99.90
28484;DHT22;15704;48.834;8.736;2023-04-24T06:51:39;9.90;99.90
28484;DHT22;15704;48.834;8.736;2023-04-24T06:54:06;9.70;99.90
28484;DHT22;15704;48.834;8.736;2023-04-24T06:56:33;9.40;99.90
28484;DHT22;15704;48.834;8.736;2023-04-24T06:59:09;9.40;99.90
28484;DHT22;15704;48.834;8.736;2023-04-24T07:01:36;9.40;99.90
28484;DHT22;15704;48.834;8.736;2023-04-24T07:04:03;9.60;99.90
28484;DHT22;15704;48.834;8.736;2023-04-24T07:06:30;9.60;99.90
28484;DHT22;15704;48.834;8.736;2023-04-24T07:08:57;9.60;99.90
28484;DHT22;15704;48.834;8.736;2023-04-24T07:11:24;9.80;99.90
28484;DHT22;15704;48.834;8.736;2023-04-24T07:13:50;9.90;99.90
28484;DHT22;15704;48.834;8.736;2023-04-24T07:16:17;10.00;99.90
28484;DHT22;15704;48.834;8.736;2023-04-24T07:18:44;10.00;99.90
28484;DHT22;15704;48.834;8.736;2023-04-24T07:21:11;10.20;99.90
28484;DHT22;15704;48.834;8.736;2023-04-24T07:23:38;10.30;99.90
28484;DHT22;15704;48.834;8.736;2023-04-24T07:26:04;10.20;99.90
28484;DHT22;15704;48.834;8.736;2023-04-24T07:28:31;10.10;99.90
28484;DHT22;15704;48.834;8.736;2023-04-24T07:30:58;9.90;99.90
28484;DHT22;15704;48.834;8.736;2023-04-24T07:33:35;10.00;99.90
28484;DHT22;15704;48.834;8.736;2023-04-24T07:36:03;10.20;99.90
28484;DHT22;15704;48.834;8.736;2023-04-24T07:38:50;10.00;99.90
28484;DHT22;15704;48.834;8.736;2023-04-24T07:41:17;9.90;99.90
28484;DHT22;15704;48.834;8.736;2023-04-24T07:43:49;10.00;99.90
28484;DHT22;15704;48.834;8.736;2023-04-24T07:46:20;9.60;99.90
28484;DHT22;15704;48.834;8.736;2023-04-24T07:48:47;9.60;99.90
28484;DHT22;15704;48.834;8.736;2023-04-24T07:51:31;9.40;99.90
28484;DHT22;15704;48.834;8.736;2023-04-24T07:54:00;8.90;99.90
28484;DHT22;15704;48.834;8.736;2023-04-24T07:56:26;8.70;99.90
28484;DHT22;15704;48.834;8.736;2023-04-24T07:58:53;8.80;99.90
28484;DHT22;15704;48.834;8.736;2023-04-24T08:01:20;8.90;99.90
28484;DHT22;15704;48.834;8.736;2023-04-24T08:03:47;8.90;99.90
28484;DHT22;15704;48.834;8.736;2023-04-24T08:06:14;8.90;99.90
28484;DHT22;15704;48.834;8.736;2023-04-24T08:08:41;9.10;99.90
28484;DHT22;15704;48.834;8.736;2023-04-24T08:11:14;8.90;99.90
28484;DHT22;15704;48.834;8.736;2023-04-24T08:13:43;8.80;99.90
28484;DHT22;15704;48.834;8.736;2023-04-24T08:16:10;8.70;99.90
28484;DHT22;15704;48.834;8.736;2023-04-24T08:18:36;9.00;99.90
28484;DHT22;15704;48.834;8.736;2023-04-24T08:21:03;9.30;99.90
28484;DHT22;15704;48.834;8.736;2023-04-24T08:23:30;9.20;99.90
28484;DHT22;15704;48.834;8.736;2023-04-24T08:25:57;9.40;99.90
28484;DHT22;15704;48.834;8.736;2023-04-24T08:28:24;9.60;99.90
28484;DHT22;15704;48.834;8.736;2023-04-24T08:30:51;9.60;99.90
28484;DHT22;15704;48.834;8.736;2023-04-24T08:33:23;9.70;99.90
28484;DHT22;15704;48.834;8.736;2023-04-24T08:35:50;9.80;99.90
28484;DHT22;15704;48.834;8.736;2023-04-24T08:38:16;9.90;99.90
28484;DHT22;15704;48.834;8.736;2023-04-24T08:40:43;9.80;99.90
28484;DHT22;15704;48.834;8.736;2023-04-24T08:43:12;9.70;99.90
28484;DHT22;15704;48.834;8.736;2023-04-24T08:45:48;9.30;99.90
28484;DHT22;15704;48.834;8.736;2023-04-24T08:48:15;9.40;99.90
28484;DHT22;15704;48.834;8.736;2023-04-24T08:50:58;9.50;99.90
28484;DHT22;15704;48.834;8.736;2023-04-24T08:53:26;9.50;99.90
28484;DHT22;15704;48.834;8.736;2023-04-24T08:55:54;9.60;99.90
28484;DHT22;15704;48.834;8.736;2023-04-24T08:58:25;9.90;99.90
28484;DHT22;15704;48.834;8.736;2023-04-24T09:01:01;10.30;99.90
28484;DHT22;15704;48.834;8.736;2023-04-24T09:03:30;10.50;99.90
28484;DHT22;15704;48.834;8.736;2023-04-24T09:05:58;10.30;99.90
28484;DHT22;15704;48.834;8.736;2023-04-24T09:08:29;10.20;99.90
28484;DHT22;15704;48.834;8.736;2023-04-24T09:10:57;10.30;99.90
28484;DHT22;15704;48.834;8.736;2023-04-24T09:13:25;10.40;99.90
28484;DHT22;15704;48.834;8.736;2023-04-24T09:15:52;10.40;99.90
28484;DHT22;15704;48.834;8.736;2023-04-24T09:18:20;10.00;99.90
28484;DHT22;15704;48.834;8.736;2023-04-24T09:21:07;9.90;99.90
28484;DHT22;15704;48.834;8.736;2023-04-24T09:23:34;9.80;99.90
28484;DHT22;15704;48.834;8.736;2023-04-24T09:26:03;10.00;99.90
28484;DHT22;15704;48.834;8.736;2023-04-24T09:28:34;10.20;99.90
28484;DHT22;15704;48.834;8.736;2023-04-24T09:33:30;10.40;99.90
28484;DHT22;15704;48.834;8.736;2023-04-24T09:35:57;10.40;99.90
28484;DHT22;15704;48.834;8.736;2023-04-24T09:38:33;10.50;99.90
28484;DHT22;15704;48.834;8.736;2023-04-24T09:41:02;10.50;99.90
28484;DHT22;15704;48.834;8.736;2023-04-24T09:43:30;10.60;99.90
28484;DHT22;15704;48.834;8.736;2023-04-24T09:45:59;10.60;99.90
28484;DHT22;15704;48.834;8.736;2023-04-24T09:48:37;10.70;99.90
28484;DHT22;15704;48.834;8.736;2023-04-24T09:51:05;10.70;99.90
28484;DHT22;15704;48.834;8.736;2023-04-24T09:53:37;10.80;99.90
28484;DHT22;15704;48.834;8.736;2023-04-24T09:56:09;11.50;99.90
28484;DHT22;15704;48.834;8.736;2023-04-24T09:58:47;11.60;99.90
28484;DHT22;15704;48.834;8.736;2023-04-24T10:01:13;11.80;99.90
28484;DHT22;15704;48.834;8.736;2023-04-24T10:03:45;11.50;99.90
28484;DHT22;15704;48.834;8.736;2023-04-24T10:06:12;11.20;99.90
28484;DHT22;15704;48.834;8.736;2023-04-24T10:08:39;11.30;99.90
28484;DHT22;15704;48.834;8.736;2023-04-24T10:11:07;11.10;99.90
28484;DHT22;15704;48.834;8.736;2023-04-24T10:13:35;11.00;99.90
28484;DHT22;15704;48.834;8.736;2023-04-24T10:16:03;11.20;99.90
28484;DHT22;15704;48.834;8.736;2023-04-24T10:18:30;11.30;99.90
28484;DHT22;15704;48.834;8.736;2023-04-24T10:21:00;11.20;99.90
28484;DHT22;15704;48.834;8.736;2023-04-24T10:23:28;11.20;99.90
28484;DHT22;15704;48.834;8.736;2023-04-24T10:25:55;10.50;99.90
28484;DHT22;15704;48.834;8.736;2023-04-24T10:28:22;10.10;99.90
28484;DHT22;15704;48.834;8.736;2023-04-24T10:30:51;9.90;99.90
28484;DHT22;15704;48.834;8.736;2023-04-24T10:33:22;9.80;99.90
28484;DHT22;15704;48.834;8.736;2023-04-24T10:35:51;9.80;99.90
28484;DHT22;15704;48.834;8.736;2023-04-24T10:38:22;10.00;99.90
28484;DHT22;15704;48.834;8.736;2023-04-24T10:40:51;10.10;99.90
28484;DHT22;15704;48.834;8.736;2023-04-24T10:43:18;10.00;99.90
28484;DHT22;15704;48.834;8.736;2023-04-24T10:46:05;10.00;99.90
28484;DHT22;15704;48.834;8.736;2023-04-24T10:48:33;10.00;99.90
28484;DHT22;15704;48.834;8.736;2023-04-24T10:51:00;10.40;99.90
28484;DHT22;15704;48.834;8.736;2023-04-24T10:53:28;10.90;99.90
28484;DHT22;15704;48.834;8.736;2023-04-24T10:56:02;11.30;99.90
28484;DHT22;15704;48.834;8.736;2023-04-24T10:58:50;11.80;99.90
28484;DHT22;15704;48.834;8.736;2023-04-24T11:01:30;11.90;99.90
28484;DHT22;15704;48.834;8.736;2023-04-24T11:04:02;12.30;99.90
28484;DHT22;15704;48.834;8.736;2023-04-24T11:06:34;12.60;99.90
28484;DHT22;15704;48.834;8.736;2023-04-24T11:09:09;12.60;99.90
28484;DHT22;15704;48.834;8.736;2023-04-24T11:11:45;11.80;99.90
28484;DHT22;15704;48.834;8.736;2023-04-24T11:14:14;11.10;99.90
28484;DHT22;15704;48.834;8.736;2023-04-24T11:16:45;10.60;99.90
28484;DHT22;15704;48.834;8.736;2023-04-24T11:19:22;10.50;99.90
28484;DHT22;15704;48.834;8.736;2023-04-24T11:21:54;10.70;99.90
28484;DHT22;15704;48.834;8.736;2023-04-24T11:24:49;11.50;99.90
28484;DHT22;15704;48.834;8.736;2023-04-24T11:27:19;12.00;99.90
28484;DHT22;15704;48.834;8.736;2023-04-24T11:32:41;12.60;99.90
28484;DHT22;15704;48.834;8.736;2023-04-24T11:35:18;12.30;99.90
28484;DHT22;15704;48.834;8.736;2023-04-24T11:37:49;12.30;99.90
28484;DHT22;15704;48.834;8.736;2023-04-24T11:40:37;12.50;99.90
28484;DHT22;15704;48.834;8.736;2023-04-24T11:43:06;12.00;99.90
28484;DHT22;15704;48.834;8.736;2023-04-24T11:45:34;11.50;99.90
28484;DHT22;15704;48.834;8.736;2023-04-24T11:48:03;11.10;99.90
28484;DHT22;15704;48.834;8.736;2023-04-24T11:50:30;11.20;99.90
28484;DHT22;15704;48.834;8.736;2023-04-24T11:52:57;11.00;99.90
28484;DHT22;15704;48.834;8.736;2023-04-24T11:55:26;11.10;99.90
28484;DHT22;15704;48.834;8.736;2023-04-24T11:57:55;11.40;99.90
28484;DHT22;15704;48.834;8.736;2023-04-24T12:00:28;11.70;99.90
28484;DHT22;15704;48.834;8.736;2023-04-24T12:05:32;11.70;99.90
28484;DHT22;15704;48.834;8.736;2023-04-24T12:08:00;11.30;99.90
28484;DHT22;15704;48.834;8.736;2023-04-24T12:10:28;11.20;99.90
28484;DHT22;15704;48.834;8.736;2023-04-24T12:12:56;11.40;99.90
28484;DHT22;15704;48.834;8.736;2023-04-24T12:15:24;11.40;99.90
28484;DHT22;15704;48.834;8.736;2023-04-24T12:17:52;11.20;99.90
28484;DHT22;15704;48.834;8.736;2023-04-24T12:20:31;10.70;99.90
28484;DHT22;15704;48.834;8.736;2023-04-24T12:23:01;9.80;99.90
28484;DHT22;15704;48.834;8.736;2023-04-24T12:25:31;9.60;99.90
28484;DHT22;15704;48.834;8.736;2023-04-24T12:30:35;10.20;99.90
28484;DHT22;15704;48.834;8.736;2023-04-24T12:33:07;10.60;99.90
28484;DHT22;15704;48.834;8.736;2023-04-24T12:35:34;10.70;99.90
28484;DHT22;15704;48.834;8.736;2023-04-24T12:38:06;10.70;99.90
28484;DHT22;15704;48.834;8.736;2023-04-24T12:40:36;10.50;99.90
28484;DHT22;15704;48.834;8.736;2023-04-24T12:43:19;10.50;99.90
28484;DHT22;15704;48.834;8.736;2023-04-24T12:45:47;10.60;99.90
28484;DHT22;15704;48.834;8.736;2023-04-24T12:48:14;10.80;99.90
28484;DHT22;15704;48.834;8.736;2023-04-24T12:50:47;10.90;99.90
28484;DHT22;15704;48.834;8.736;2023-04-24T12:53:14;10.80;99.90
28484;DHT22;15704;48.834;8.736;2023-04-24T12:55:42;10.80;99.90
28484;DHT22;15704;48.834;8.736;2023-04-24T12:58:09;11.00;99.90
28484;DHT22;15704;48.834;8.736;2023-04-24T13:00:36;10.90;99.90
28484;DHT22;15704;48.834;8.736;2023-04-24T13:03:03;10.60;99.90
28484;DHT22;15704;48.834;8.736;2023-04-24T13:05:30;10.70;99.90
28484;DHT22;15704;48.834;8.736;2023-04-24T13:07:57;11.10;99.90
28484;DHT22;15704;48.834;8.736;2023-04-24T13:10:24;11.60;99.90
28484;DHT22;15704;48.834;8.736;2023-04-24T13:12:50;11.40;99.90
28484;DHT22;15704;48.834;8.736;2023-04-24T13:15:17;11.30;99.90
28484;DHT22;15704;48.834;8.736;2023-04-24T13:17:44;10.90;99.90
28484;DHT22;15704;48.834;8.736;2023-04-24T13:20:11;11.30;99.90
28484;DHT22;15704;48.834;8.736;2023-04-24T13:22:38;11.50;99.90
28484;DHT22;15704;48.834;8.736;2023-04-24T13:25:05;11.30;99.90
28484;DHT22;15704;48.834;8.736;2023-04-24T13:27:32;11.50;99.90
28484;DHT22;15704;48.834;8.736;2023-04-24T13:29:59;11.30;99.90
28484;DHT22;15704;48.834;8.736;2023-04-24T13:32:26;11.30;99.90
28484;DHT22;15704;48.834;8.736;2023-04-24T13:34:54;11.40;99.90
28484;DHT22;15704;48.834;8.736;2023-04-24T13:37:20;11.20;99.90
28484;DHT22;15704;48.834;8.736;2023-04-24T13:39:48;11.20;99.90
28484;DHT22;15704;48.834;8.736;2023-04-24T13:42:15;11.40;99.90
28484;DHT22;15704;48.834;8.736;2023-04-24T13:44:42;11.90;99.90
28484;DHT22;15704;48.834;8.736;2023-04-24T13:47:09;12.00;99.90
28484;DHT22;15704;48.834;8.736;2023-04-24T13:49:35;11.50;99.90
28484;DHT22;15704;48.834;8.736;2023-04-24T13:52:02;11.50;99.90
28484;DHT22;15704;48.834;8.736;2023-04-24T13:54:29;11.60;99.90
28484;DHT22;15704;48.834;8.736;2023-04-24T13:56:58;11.60;99.90
28484;DHT22;15704;48.834;8.736;2023-04-24T13:59:25;11.60;99.90
28484;DHT22;15704;48.834;8.736;2023-04-24T14:01:52;11.20;99.90
28484;DHT22;15704;48.834;8.736;2023-04-24T14:04:18;11.20;99.90
28484;DHT22;15704;48.834;8.736;2023-04-24T14:06:45;11.10;99.90
28484;DHT22;15704;48.834;8.736;2023-04-24T14:09:12;11.20;99.90
28484;DHT22;15704;48.834;8.736;2023-04-24T14:11:39;11.00;99.90
28484;DHT22;15704;48.834;8.736;2023-04-24T14:14:07;11.20;99.90
28484;DHT22;15704;48.834;8.736;2023-04-24T14:16:34;11.40;99.90
28484;DHT22;15704;48.834;8.736;2023-04-24T14:19:01;11.50;99.90
28484;DHT22;15704;48.834;8.736;2023-04-24T14:21:28;11.70;99.90
28484;DHT22;15704;48.834;8.736;2023-04-24T14:23:55;11.60;99.90
28484;DHT22;15704;48.834;8.736;2023-04-24T14:26:21;11.70;99.90
28484;DHT22;15704;48.834;8.736;2023-04-24T14:28:48;12.20;99.90
28484;DHT22;15704;48.834;8.736;2023-04-24T14:31:16;12.10;99.90
28484;DHT22;15704;48.834;8.736;2023-04-24T14:33:43;11.50;99.90
28484;DHT22;15704;48.834;8.736;2023-04-24T14:36:10;11.40;99.90
28484;DHT22;15704;48.834;8.736;2023-04-24T14:38:40;11.50;99.90
28484;DHT22;15704;48.834;8.736;2023-04-24T14:41:07;11.40;99.90
28484;DHT22;15704;48.834;8.736;2023-04-24T14:43:39;11.00;99.90
28484;DHT22;15704;48.834;8.736;2023-04-24T14:46:07;11.00;99.90
28484;DHT22;15704;48.834;8.736;2023-04-24T14:48:33;11.00;99.90
28484;DHT22;15704;48.834;8.736;2023-04-24T14:51:00;10.90;99.90
28484;DHT22;15704;48.834;8.736;2023-04-24T14:53:27;10.70;99.90
28484;DHT22;15704;48.834;8.736;2023-04-24T14:55:53;10.70;99.90
28484;DHT22;15704;48.834;8.736;2023-04-24T14:58:20;10.70;99.90
28484;DHT22;15704;48.834;8.736;2023-04-24T15:00:47;10.60;99.90
28484;DHT22;15704;48.834;8.736;2023-04-24T15:03:18;10.70;99.90
28484;DHT22;15704;48.834;8.736;2023-04-24T15:05:46;10.40;99.90
28484;DHT22;15704;48.834;8.736;2023-04-24T15:08:14;10.30;99.90
28484;DHT22;15704;48.834;8.736;2023-04-24T15:10:40;10.10;99.90
28484;DHT22;15704;48.834;8.736;2023-04-24T15:13:07;10.20;99.90
28484;DHT22;15704;48.834;8.736;2023-04-24T15:15:34;10.00;99.90
28484;DHT22;15704;48.834;8.736;2023-04-24T15:18:01;10.00;99.90
28484;DHT22;15704;48.834;8.736;2023-04-24T15:20:28;10.00;99.90
28484;DHT22;15704;48.834;8.736;2023-04-24T15:22:54;10.20;99.90
28484;DHT22;15704;48.834;8.736;2023-04-24T15:25:21;10.40;99.90
28484;DHT22;15704;48.834;8.736;2023-04-24T15:27:48;10.50;99.90
28484;DHT22;15704;48.834;8.736;2023-04-24T15:30:15;10.50;99.90
28484;DHT22;15704;48.834;8.736;2023-04-24T15:32:42;10.60;99.90
28484;DHT22;15704;48.834;8.736;2023-04-24T15:35:09;10.60;99.90
28484;DHT22;15704;48.834;8.736;2023-04-24T15:37:37;10.60;99.90
28484;DHT22;15704;48.834;8.736;2023-04-24T15:40:05;10.60;99.90
28484;DHT22;15704;48.834;8.736;2023-04-24T15:42:34;10.60;99.90
28484;DHT22;15704;48.834;8.736;2023-04-24T15:45:02;10.60;99.90
28484;DHT22;15704;48.834;8.736;2023-04-24T15:47:29;10.70;99.90
28484;DHT22;15704;48.834;8.736;2023-04-24T15:49:57;10.80;99.90
28484;DHT22;15704;48.834;8.736;2023-04-24T15:52:24;10.80;99.90
28484;DHT22;15704;48.834;8.736;2023-04-24T15:54:50;10.80;99.90
28484;DHT22;15704;48.834;8.736;2023-04-24T15:57:17;10.90;99.90
28484;DHT22;15704;48.834;8.736;2023-04-24T15:59:44;10.90;99.90
28484;DHT22;15704;48.834;8.736;2023-04-24T16:02:13;11.00;99.90